Time;durP1;ratioP1;P1;durP2;ratioP2;P2;SDS_P1;SDS_P2;PMS_P1;PMS_P2;Temp;Humidity;BMP_temperature;BMP_pressure;BME280_temperature;BME280_humidity;BME280_pressure;Samples;Min_cycle;Max_cycle;Signal;HPM_P1;HPM_P2
2023/07/29 00:00:50;;;;;;;3.65;2.00;;;18.20;99.90;;;;;;5052531;28;20067;-86
2023/07/29 00:03:15;;;;;;;3.33;2.17;;;18.20;99.90;;;;;;5071819;28;20048;-85
2023/07/29 00:05:41;;;;;;;4.72;1.90;;;18.20;99.90;;;;;;5072744;28;20392;-85
2023/07/29 00:08:07;;;;;;;2.67;1.50;;;18.10;99.90;;;;;;5071873;28;20075;-85
2023/07/29 00:10:36;;;;;;;4.25;1.85;;;18.10;99.90;;;;;;5072493;28;20041;-85
2023/07/29 00:13:02;;;;;;;4.03;2.00;;;18.10;99.90;;;;;;5072328;28;20044;-86
2023/07/29 00:15:28;;;;;;;4.18;1.67;;;18.00;99.90;;;;;;5071381;28;20047;-85
2023/07/29 00:17:54;;;;;;;7.38;2.47;;;18.00;99.90;;;;;;5072243;28;20188;-85
2023/07/29 00:20:20;;;;;;;3.35;1.75;;;17.90;99.90;;;;;;5072319;28;20380;-85
2023/07/29 00:22:45;;;;;;;3.63;1.80;;;17.90;99.90;;;;;;5071363;28;20373;-85
2023/07/29 00:25:11;;;;;;;3.13;1.55;;;17.90;99.90;;;;;;5053727;28;20055;-85
2023/07/29 00:27:37;;;;;;;3.38;1.67;;;17.80;99.90;;;;;;5054085;28;20091;-84
2023/07/29 00:30:03;;;;;;;5.88;1.25;;;17.80;99.90;;;;;;5053368;28;20123;-85
2023/07/29 00:32:30;;;;;;;3.13;1.73;;;17.70;99.90;;;;;;5037611;28;20407;-85
2023/07/29 00:34:56;;;;;;;5.15;2.20;;;17.70;99.90;;;;;;5071953;28;20275;-85
2023/07/29 00:37:21;;;;;;;4.13;1.67;;;17.60;99.90;;;;;;5071376;28;20032;-85
2023/07/29 00:39:47;;;;;;;2.83;1.60;;;17.60;99.90;;;;;;5070461;28;20059;-85
2023/07/29 00:42:13;;;;;;;2.88;1.60;;;17.60;99.90;;;;;;5053776;28;20044;-85
2023/07/29 00:44:39;;;;;;;3.00;1.80;;;17.50;99.90;;;;;;5071007;28;20078;-85
2023/07/29 00:47:06;;;;;;;7.55;2.35;;;17.40;99.90;;;;;;5071665;28;20071;-85
2023/07/29 00:49:33;;;;;;;3.47;1.58;;;17.40;99.90;;;;;;5071719;28;20458;-85
2023/07/29 00:51:58;;;;;;;4.55;1.83;;;17.40;99.90;;;;;;5070957;28;20082;-85
2023/07/29 00:54:24;;;;;;;3.22;1.67;;;17.30;99.90;;;;;;5071669;28;20037;-85
2023/07/29 00:56:51;;;;;;;4.20;1.98;;;17.30;99.90;;;;;;5070727;28;20036;-85
2023/07/29 00:59:16;;;;;;;4.00;2.00;;;17.30;99.90;;;;;;5071031;28;20068;-85
2023/07/29 01:01:42;;;;;;;3.72;1.63;;;17.20;99.90;;;;;;5071270;28;20399;-85
2023/07/29 01:04:08;;;;;;;2.65;1.55;;;17.20;99.90;;;;;;5071074;28;20044;-85
2023/07/29 01:07:06;;;;;;;3.13;1.75;;;17.20;99.90;;;;;;5071486;28;20492;-85
2023/07/29 01:09:37;;;;;;;4.05;1.63;;;17.30;99.90;;;;;;5071331;28;20399;-85
2023/07/29 01:12:24;;;;;;;3.80;1.80;;;17.30;99.90;;;;;;5070372;28;20053;-85
2023/07/29 01:15:40;;;;;;;4.30;1.33;;;17.20;99.90;;;;;;5070957;28;20040;-85
2023/07/29 01:18:11;;;;;;;4.20;2.08;;;17.20;99.90;;;;;;5028099;28;20037;-85
2023/07/29 01:20:42;;;;;;;3.95;1.67;;;17.20;99.90;;;;;;5028635;28;20091;-85
2023/07/29 01:23:08;;;;;;;2.58;1.42;;;17.20;99.90;;;;;;5028813;28;20056;-85
2023/07/29 01:25:33;;;;;;;3.47;2.00;;;17.20;99.90;;;;;;5027694;28;20041;-85
2023/07/29 01:27:59;;;;;;;3.25;1.25;;;17.20;99.90;;;;;;5012234;28;20046;-85
2023/07/29 01:30:33;;;;;;;4.40;1.92;;;17.10;99.90;;;;;;5012043;28;20272;-85
2023/07/29 01:33:13;;;;;;;5.13;2.28;;;17.10;99.90;;;;;;5011591;28;20075;-85
2023/07/29 01:35:50;;;;;;;4.15;1.85;;;17.10;99.90;;;;;;5012142;28;20460;-85
2023/07/29 01:38:31;;;;;;;4.25;2.10;;;17.10;99.90;;;;;;5012193;28;20077;-84
2023/07/29 01:41:01;;;;;;;3.65;1.70;;;17.00;99.90;;;;;;5011215;28;20386;-85
2023/07/29 01:43:28;;;;;;;4.25;1.95;;;17.10;99.90;;;;;;5028237;28;20053;-85
2023/07/29 01:45:54;;;;;;;4.88;2.10;;;17.00;99.90;;;;;;5010898;28;20088;-85
2023/07/29 01:48:20;;;;;;;4.60;2.30;;;17.00;99.90;;;;;;5011792;28;20497;-85
2023/07/29 01:50:46;;;;;;;3.47;1.95;;;17.00;99.90;;;;;;5011495;28;20045;-85
2023/07/29 01:53:11;;;;;;;3.65;1.95;;;16.90;99.90;;;;;;5033294;28;20041;-85
2023/07/29 01:55:37;;;;;;;4.78;2.05;;;17.00;99.90;;;;;;5070448;28;20032;-85
2023/07/29 01:58:03;;;;;;;3.83;1.35;;;16.90;99.90;;;;;;5070715;28;20377;-86
2023/07/29 02:00:28;;;;;;;3.20;1.58;;;16.80;99.90;;;;;;5069705;28;20040;-85
2023/07/29 02:02:54;;;;;;;5.28;1.95;;;16.80;99.90;;;;;;5070676;28;20514;-85
2023/07/29 02:05:20;;;;;;;3.15;1.42;;;16.80;99.90;;;;;;5070375;28;20036;-85
2023/07/29 02:07:46;;;;;;;4.40;1.42;;;16.80;99.90;;;;;;5051746;28;20083;-85
2023/07/29 02:10:11;;;;;;;2.95;1.48;;;16.70;99.90;;;;;;5052623;28;20044;-85
2023/07/29 02:12:37;;;;;;;3.35;1.63;;;16.70;99.90;;;;;;5070416;28;20495;-85
2023/07/29 02:15:04;;;;;;;3.67;1.40;;;16.70;99.90;;;;;;5069490;28;20500;-85
2023/07/29 02:17:30;;;;;;;4.38;1.55;;;16.60;99.90;;;;;;5070282;28;20090;-85
2023/07/29 02:19:56;;;;;;;5.22;1.60;;;16.60;99.90;;;;;;5070469;28;20129;-85
2023/07/29 02:22:22;;;;;;;3.15;1.50;;;16.60;99.90;;;;;;5069706;28;20087;-85
2023/07/29 02:24:48;;;;;;;3.65;1.83;;;16.50;99.90;;;;;;5070140;28;20575;-85
2023/07/29 02:27:13;;;;;;;4.90;1.40;;;16.50;99.90;;;;;;5054514;28;20061;-85
2023/07/29 02:29:39;;;;;;;4.03;1.98;;;16.50;99.90;;;;;;5053583;28;20041;-85
2023/07/29 02:32:06;;;;;;;5.10;1.58;;;16.50;99.90;;;;;;5046031;28;20048;-85
2023/07/29 02:34:32;;;;;;;2.58;1.30;;;16.50;99.90;;;;;;5018871;28;20052;-85
2023/07/29 02:36:57;;;;;;;2.65;1.25;;;16.40;99.90;;;;;;5033484;28;20117;-85
2023/07/29 02:39:23;;;;;;;2.50;1.30;;;16.40;99.90;;;;;;5016316;28;20048;-85
2023/07/29 02:41:49;;;;;;;2.05;1.10;;;16.40;99.90;;;;;;5043726;28;20040;-85
2023/07/29 02:44:16;;;;;;;3.83;1.15;;;16.40;99.90;;;;;;5053920;28;20044;-85
2023/07/29 02:46:41;;;;;;;3.30;1.08;;;16.40;99.90;;;;;;5038977;28;20135;-85
2023/07/29 02:49:07;;;;;;;3.80;1.10;;;16.30;99.90;;;;;;5022035;28;20516;-85
2023/07/29 02:51:33;;;;;;;4.07;1.38;;;16.30;99.90;;;;;;5035903;28;20423;-85
2023/07/29 02:53:59;;;;;;;2.13;1.08;;;16.30;99.90;;;;;;5035722;28;20128;-85
2023/07/29 02:56:24;;;;;;;2.78;1.15;;;16.30;99.90;;;;;;5035326;28;20040;-85
2023/07/29 02:58:53;;;;;;;2.83;1.08;;;16.20;99.90;;;;;;5035572;28;20044;-85
2023/07/29 03:01:19;;;;;;;2.60;1.30;;;16.20;99.90;;;;;;5035832;28;20052;-85
2023/07/29 03:03:44;;;;;;;2.78;1.23;;;16.20;99.90;;;;;;5035243;28;20037;-85
2023/07/29 03:06:13;;;;;;;1.17;0.60;;;16.20;99.90;;;;;;5035505;28;20106;-85
2023/07/29 03:08:39;;;;;;;2.05;1.10;;;16.20;99.90;;;;;;5035461;28;20033;-85
2023/07/29 03:11:15;;;;;;;4.75;1.02;;;16.10;99.90;;;;;;5052914;28;20048;-85
2023/07/29 03:13:41;;;;;;;2.15;0.82;;;16.10;99.90;;;;;;5019112;28;20045;-85
2023/07/29 03:16:16;;;;;;;2.22;0.88;;;16.20;99.90;;;;;;5035639;28;20140;-85
2023/07/29 03:18:43;;;;;;;1.98;0.85;;;16.20;99.90;;;;;;5034982;28;20103;-85
2023/07/29 03:21:10;;;;;;;0.82;0.40;;;16.10;99.90;;;;;;5035644;28;20033;-85
2023/07/29 03:23:37;;;;;;;1.67;1.02;;;16.20;99.90;;;;;;5015598;28;20128;-85
2023/07/29 03:26:10;;;;;;;3.75;1.05;;;16.20;99.90;;;;;;5061128;28;20078;-85
2023/07/29 03:28:40;;;;;;;1.67;0.75;;;16.20;99.90;;;;;;5073256;28;20048;-85
2023/07/29 03:31:07;;;;;;;1.70;0.60;;;16.20;99.90;;;;;;5044216;28;20051;-85
2023/07/29 03:33:32;;;;;;;1.00;0.52;;;16.10;99.90;;;;;;5018833;28;20480;-85
2023/07/29 03:35:58;;;;;;;1.38;0.65;;;16.10;99.90;;;;;;5035456;28;20120;-85
2023/07/29 03:38:24;;;;;;;1.90;0.98;;;16.10;99.90;;;;;;5046062;28;20036;-85
2023/07/29 03:40:51;;;;;;;1.25;0.60;;;16.20;99.90;;;;;;5054911;28;20484;-85
2023/07/29 03:43:16;;;;;;;1.00;0.50;;;16.20;99.90;;;;;;5054647;28;20049;-85
2023/07/29 03:45:42;;;;;;;1.83;0.82;;;16.20;99.90;;;;;;5051917;28;20033;-85
2023/07/29 03:48:08;;;;;;;1.38;0.70;;;16.20;99.90;;;;;;5052863;28;20130;-85
2023/07/29 03:50:35;;;;;;;1.75;0.45;;;16.20;99.90;;;;;;5052938;28;20179;-85
2023/07/29 03:53:02;;;;;;;1.15;0.50;;;16.20;99.90;;;;;;5072133;28;20462;-85
2023/07/29 03:55:29;;;;;;;2.72;0.70;;;16.20;99.90;;;;;;5072642;28;20124;-85
2023/07/29 03:57:59;;;;;;;0.95;0.50;;;16.20;99.90;;;;;;5054645;28;20075;-85
2023/07/29 04:00:25;;;;;;;;;;;16.20;99.90;;;;;;5054249;28;20058;-85
2023/07/29 04:02:51;;;;;;;0.93;0.40;;;16.10;99.90;;;;;;5053454;28;20379;-85
2023/07/29 04:05:17;;;;;;;2.40;0.85;;;16.20;99.90;;;;;;5072227;28;20076;-85
2023/07/29 04:07:43;;;;;;;2.35;0.75;;;16.10;99.90;;;;;;5071711;28;20102;-85
2023/07/29 04:10:08;;;;;;;1.23;0.60;;;16.10;99.90;;;;;;5054137;28;20616;-85
2023/07/29 04:12:34;;;;;;;1.25;0.55;;;16.10;99.90;;;;;;5053322;28;20044;-85
2023/07/29 04:15:00;;;;;;;1.70;0.80;;;16.10;99.90;;;;;;5071069;28;20086;-85
2023/07/29 04:17:26;;;;;;;1.88;0.90;;;16.10;99.90;;;;;;5072586;28;20055;-85
2023/07/29 04:19:52;;;;;;;3.03;0.70;;;16.10;99.90;;;;;;5071875;28;20036;-85
2023/07/29 04:22:17;;;;;;;1.55;0.70;;;16.10;99.90;;;;;;5072093;28;20369;-85
2023/07/29 04:24:43;;;;;;;2.17;0.98;;;16.10;99.90;;;;;;5054175;28;20083;-85
2023/07/29 04:27:09;;;;;;;2.47;0.82;;;16.10;99.90;;;;;;5070642;28;20083;-86
2023/07/29 04:29:38;;;;;;;1.20;0.70;;;16.10;99.90;;;;;;5071876;28;20075;-85
2023/07/29 04:32:04;;;;;;;2.10;0.77;;;16.20;99.90;;;;;;5071704;28;20043;-85
2023/07/29 04:34:30;;;;;;;2.90;0.65;;;16.10;99.90;;;;;;5070570;28;20040;-85
2023/07/29 04:36:55;;;;;;;1.00;0.63;;;16.10;99.90;;;;;;5071834;28;20119;-85
2023/07/29 04:39:21;;;;;;;2.35;0.95;;;16.20;99.90;;;;;;5071640;28;20040;-85
2023/07/29 04:41:47;;;;;;;0.55;0.40;;;16.20;99.90;;;;;;5053516;28;20127;-85
2023/07/29 04:44:13;;;;;;;1.17;0.57;;;16.20;99.90;;;;;;5053034;28;20496;-85
2023/07/29 04:46:38;;;;;;;0.90;0.40;;;16.20;99.90;;;;;;5071526;28;20041;-85
2023/07/29 04:49:04;;;;;;;2.50;0.68;;;16.20;99.90;;;;;;5052880;28;20063;-85
2023/07/29 04:51:31;;;;;;;1.38;0.50;;;16.20;99.90;;;;;;5058496;28;20036;-85
2023/07/29 04:53:58;;;;;;;1.27;0.70;;;16.30;99.90;;;;;;5057110;28;20051;-85
2023/07/29 04:56:23;;;;;;;0.70;0.45;;;16.30;99.90;;;;;;5070762;28;20039;-85
2023/07/29 04:58:49;;;;;;;1.52;0.52;;;16.30;99.90;;;;;;5070745;28;20037;-86
2023/07/29 05:01:15;;;;;;;1.33;0.50;;;16.30;99.90;;;;;;5071205;28;20426;-85
2023/07/29 05:03:41;;;;;;;1.63;0.65;;;16.40;99.90;;;;;;5052241;28;20525;-85
2023/07/29 05:06:06;;;;;;;3.17;1.00;;;16.40;99.90;;;;;;5053269;28;20047;-85
2023/07/29 05:08:32;;;;;;;1.02;0.40;;;16.40;99.90;;;;;;5036637;28;20052;-85
2023/07/29 05:10:58;;;;;;;1.95;0.80;;;16.50;99.90;;;;;;5052920;28;20087;-85
2023/07/29 05:13:24;;;;;;;1.45;0.43;;;16.50;99.90;;;;;;5053059;28;20427;-85
2023/07/29 05:15:49;;;;;;;1.90;0.73;;;16.50;99.90;;;;;;5070088;28;20105;-86
2023/07/29 05:18:16;;;;;;;4.68;1.10;;;16.50;99.90;;;;;;5071209;28;20040;-86
2023/07/29 05:20:42;;;;;;;1.15;0.63;;;16.50;99.90;;;;;;5070664;28;20496;-85
2023/07/29 05:23:08;;;;;;;2.17;0.50;;;16.50;99.90;;;;;;5036220;28;20082;-85
2023/07/29 05:25:36;;;;;;;1.83;0.40;;;16.50;99.90;;;;;;5032603;28;20096;-86
2023/07/29 05:28:03;;;;;;;1.65;0.45;;;16.50;99.90;;;;;;5032873;28;20098;-86
2023/07/29 05:30:31;;;;;;;3.85;0.52;;;16.50;99.90;;;;;;5059099;28;20359;-86
2023/07/29 05:33:00;;;;;;;1.27;0.65;;;16.50;99.90;;;;;;5052708;28;20044;-86
2023/07/29 05:35:26;;;;;;;1.02;0.43;;;16.60;99.90;;;;;;5037654;28;20404;-87
2023/07/29 05:37:52;;;;;;;1.45;0.75;;;16.60;99.90;;;;;;5015653;28;20040;-86
2023/07/29 05:40:18;;;;;;;1.15;0.45;;;16.60;99.90;;;;;;5050877;28;20036;-89
2023/07/29 05:42:45;;;;;;;1.00;0.30;;;16.70;99.90;;;;;;5033335;28;20029;-88
2023/07/29 05:45:11;;;;;;;1.20;0.50;;;16.70;99.90;;;;;;5032301;28;20048;-87
2023/07/29 05:47:37;;;;;;;1.38;0.47;;;16.80;99.90;;;;;;5016547;28;20199;-88
2023/07/29 05:50:04;;;;;;;1.20;0.60;;;16.80;99.90;;;;;;5029548;28;20079;-88
2023/07/29 05:52:33;;;;;;;1.05;0.60;;;16.90;99.90;;;;;;5051847;28;20076;-87
2023/07/29 05:54:59;;;;;;;1.75;0.52;;;16.90;99.90;;;;;;5052610;28;20162;-86
2023/07/29 05:57:25;;;;;;;0.80;0.47;;;17.00;99.90;;;;;;5053043;28;20075;-86
2023/07/29 05:59:50;;;;;;;1.40;0.43;;;17.00;99.90;;;;;;5052153;28;20119;-87
2023/07/29 06:02:16;;;;;;;0.57;0.40;;;17.10;99.90;;;;;;5069934;28;20067;-85
2023/07/29 06:04:42;;;;;;;2.08;0.95;;;17.20;99.90;;;;;;5071126;28;20040;-90
2023/07/29 06:07:08;;;;;;;1.48;0.77;;;17.30;99.90;;;;;;5052754;28;20041;-89
2023/07/29 06:09:33;;;;;;;3.08;0.68;;;17.40;99.90;;;;;;5070898;28;20037;-88
2023/07/29 06:11:59;;;;;;;1.35;0.60;;;17.50;99.90;;;;;;5034871;28;20067;-88
2023/07/29 06:14:26;;;;;;;2.67;0.90;;;17.70;99.90;;;;;;5070611;28;20044;-88
2023/07/29 06:16:51;;;;;;;2.45;0.68;;;17.80;99.90;;;;;;5070869;28;20045;-89
2023/07/29 06:19:19;;;;;;;1.08;0.75;;;17.80;99.90;;;;;;5051982;28;20043;-87
2023/07/29 06:21:45;;;;;;;1.23;0.70;;;17.90;99.90;;;;;;5070421;28;20089;-87
2023/07/29 06:24:11;;;;;;;1.33;0.70;;;17.90;99.90;;;;;;5070463;28;20548;-87
2023/07/29 06:26:37;;;;;;;1.70;0.60;;;18.00;99.90;;;;;;5069188;28;20052;-88
2023/07/29 06:29:02;;;;;;;1.33;0.70;;;18.20;99.90;;;;;;5070198;28;20087;-86
2023/07/29 06:31:29;;;;;;;4.68;1.23;;;18.20;99.90;;;;;;5070282;28;20369;-87
2023/07/29 06:33:55;;;;;;;4.50;1.00;;;18.30;99.90;;;;;;5051727;28;20059;-87
2023/07/29 06:36:21;;;;;;;2.15;0.80;;;18.40;99.90;;;;;;5035190;28;20057;-87
2023/07/29 06:38:47;;;;;;;2.22;0.73;;;18.40;99.90;;;;;;5052147;28;20123;-87
2023/07/29 06:41:12;;;;;;;4.18;0.88;;;18.50;99.90;;;;;;5069279;28;20040;-87
2023/07/29 06:43:38;;;;;;;1.88;1.02;;;18.70;99.90;;;;;;5074566;28;20041;-87
2023/07/29 06:46:04;;;;;;;2.47;1.23;;;18.80;99.90;;;;;;5049360;28;20472;-87
2023/07/29 06:48:30;;;;;;;1.58;0.70;;;18.90;99.90;;;;;;5054217;28;20435;-88
2023/07/29 06:51:00;;;;;;;2.90;0.70;;;18.90;99.90;;;;;;5066302;28;20037;-87
2023/07/29 06:53:28;;;;;;;2.03;1.00;;;18.90;99.90;;;;;;5032282;28;20041;-87
2023/07/29 06:55:54;;;;;;;3.00;0.95;;;18.90;99.90;;;;;;5049304;28;20040;-87
2023/07/29 06:58:20;;;;;;;2.95;0.98;;;18.90;99.90;;;;;;5063581;28;20033;-87
2023/07/29 07:00:46;;;;;;;3.05;1.23;;;18.80;99.90;;;;;;5069092;28;20116;-87
2023/07/29 07:03:12;;;;;;;1.52;0.82;;;18.80;99.90;;;;;;5069756;28;20120;-88
2023/07/29 07:05:38;;;;;;;4.05;0.95;;;18.80;99.90;;;;;;5069960;28;20037;-87
2023/07/29 07:08:03;;;;;;;1.17;0.50;;;18.80;99.90;;;;;;5069367;28;20044;-87
2023/07/29 07:10:29;;;;;;;1.88;0.80;;;18.90;99.90;;;;;;5051798;28;20036;-87
2023/07/29 07:12:55;;;;;;;3.00;0.52;;;19.10;99.90;;;;;;5071667;28;20051;-88
2023/07/29 07:15:21;;;;;;;1.58;0.65;;;19.40;99.90;;;;;;5072651;28;20587;-87
2023/07/29 07:17:47;;;;;;;3.15;1.10;;;19.60;99.90;;;;;;5073434;28;20041;-88
2023/07/29 07:20:12;;;;;;;1.65;0.80;;;19.80;99.90;;;;;;5073389;28;20472;-88
2023/07/29 07:22:39;;;;;;;2.45;0.80;;;19.90;99.90;;;;;;5071369;28;20024;-87
2023/07/29 07:25:05;;;;;;;4.32;1.13;;;19.90;99.90;;;;;;5072821;28;20090;-87
2023/07/29 07:27:31;;;;;;;1.25;0.80;;;20.00;99.90;;;;;;5073204;28;20066;-88
2023/07/29 07:29:56;;;;;;;3.05;1.20;;;20.00;99.90;;;;;;5072847;28;20548;-88
2023/07/29 07:32:22;;;;;;;1.55;0.90;;;19.80;99.90;;;;;;5073223;28;20587;-87
2023/07/29 07:34:48;;;;;;;1.60;0.90;;;19.70;99.90;;;;;;5072980;28;20113;-87
2023/07/29 07:37:14;;;;;;;1.25;0.90;;;19.60;99.90;;;;;;5054725;28;20123;-87
2023/07/29 07:39:39;;;;;;;1.17;0.75;;;19.50;99.90;;;;;;5054971;28;20370;-87
2023/07/29 07:42:05;;;;;;;2.30;0.73;;;19.40;99.90;;;;;;5072770;28;20036;-87
2023/07/29 07:44:31;;;;;;;1.55;0.80;;;19.40;99.90;;;;;;5072440;28;20036;-87
2023/07/29 07:46:57;;;;;;;2.45;0.80;;;19.30;99.90;;;;;;5055258;28;20439;-87
2023/07/29 07:49:23;;;;;;;3.42;0.70;;;19.30;99.90;;;;;;5072899;28;20048;-88
2023/07/29 07:51:49;;;;;;;1.55;0.73;;;19.50;99.90;;;;;;5072223;28;20040;-88
2023/07/29 07:54:14;;;;;;;0.68;0.50;;;19.60;99.90;;;;;;5061499;28;20098;-88
2023/07/29 07:56:40;;;;;;;4.85;0.60;;;19.80;99.90;;;;;;5051735;28;20596;-88
2023/07/29 07:59:06;;;;;;;3.53;0.88;;;19.90;99.90;;;;;;5038230;28;20115;-87
2023/07/29 08:01:39;;;;;;;1.67;0.80;;;20.00;99.90;;;;;;5072386;28;20029;-87
2023/07/29 08:04:05;;;;;;;1.80;0.73;;;19.90;99.90;;;;;;5054105;28;20048;-88
2023/07/29 08:06:32;;;;;;;1.23;0.77;;;20.00;99.90;;;;;;5072480;28;20074;-88
2023/07/29 08:08:57;;;;;;;1.20;0.70;;;20.20;99.90;;;;;;5072825;28;20045;-88
2023/07/29 08:11:23;;;;;;;4.68;1.13;;;20.50;99.90;;;;;;5069197;28;20049;-88
2023/07/29 08:13:49;;;;;;;2.38;0.68;;;20.50;99.90;;;;;;5052275;28;20041;-88
2023/07/29 08:16:15;;;;;;;2.22;0.98;;;20.50;99.90;;;;;;5052454;28;20041;-88
2023/07/29 08:18:41;;;;;;;2.33;1.05;;;20.50;99.90;;;;;;5057722;28;20064;-88
2023/07/29 08:21:07;;;;;;;2.10;1.02;;;20.80;99.90;;;;;;5072108;28;20115;-88
2023/07/29 08:23:34;;;;;;;2.00;0.95;;;21.30;99.90;;;;;;5053663;28;20044;-88
2023/07/29 08:26:02;;;;;;;1.88;0.77;;;21.50;99.90;;;;;;5071136;28;20105;-89
2023/07/29 08:28:29;;;;;;;3.00;0.70;;;21.60;99.90;;;;;;5037557;28;20056;-88
2023/07/29 08:30:55;;;;;;;1.83;0.60;;;21.90;99.90;;;;;;5054073;28;20101;-87
2023/07/29 08:33:20;;;;;;;1.33;0.85;;;22.00;99.90;;;;;;5053466;28;20036;-88
2023/07/29 08:35:46;;;;;;;1.23;0.73;;;21.90;99.90;;;;;;5071980;28;20036;-88
2023/07/29 08:38:12;;;;;;;1.80;0.70;;;21.90;99.90;;;;;;5071100;28;20047;-88
2023/07/29 08:40:45;;;;;;;0.82;0.40;;;22.00;99.90;;;;;;5061968;28;20040;-89
2023/07/29 08:43:12;;;;;;;1.70;0.70;;;22.20;99.90;;;;;;5071760;28;20153;-88
2023/07/29 08:45:39;;;;;;;1.27;0.65;;;22.20;99.90;;;;;;5070412;28;20102;-88
2023/07/29 08:48:09;;;;;;;1.08;0.50;;;22.00;99.90;;;;;;5052186;28;20048;-88
2023/07/29 08:50:37;;;;;;;0.77;0.35;;;21.70;99.90;;;;;;5069694;28;20572;-88
2023/07/29 08:53:06;;;;;;;2.05;0.40;;;21.40;99.90;;;;;;5037301;28;20043;-89
2023/07/29 08:55:33;;;;;;;1.38;0.75;;;21.30;99.90;;;;;;5051491;28;20063;-88
2023/07/29 08:58:00;;;;;;;1.42;0.63;;;21.40;99.90;;;;;;5033618;28;20045;-88
2023/07/29 09:00:26;;;;;;;1.42;0.77;;;21.60;99.90;;;;;;5050575;28;20504;-87
2023/07/29 09:02:53;;;;;;;1.40;0.77;;;21.70;99.90;;;;;;5033589;28;20413;-88
2023/07/29 09:05:21;;;;;;;1.30;0.77;;;21.70;99.90;;;;;;5051348;28;20087;-88
2023/07/29 09:07:48;;;;;;;1.92;0.80;;;21.70;99.90;;;;;;5049394;28;20095;-88
2023/07/29 09:10:14;;;;;;;3.38;0.80;;;21.70;99.90;;;;;;5051252;28;20033;-88
2023/07/29 09:12:40;;;;;;;1.30;0.60;;;21.70;99.90;;;;;;5032456;28;20068;-88
2023/07/29 09:15:07;;;;;;;1.95;0.50;;;21.60;99.90;;;;;;5056418;28;20515;-89
2023/07/29 09:17:36;;;;;;;2.22;0.80;;;21.60;99.90;;;;;;5053492;28;20426;-90
2023/07/29 09:20:01;;;;;;;1.27;0.55;;;21.60;99.90;;;;;;5059987;28;20068;-89
2023/07/29 09:22:27;;;;;;;2.72;0.73;;;21.60;99.90;;;;;;5050835;28;20079;-89
2023/07/29 09:24:56;;;;;;;3.53;0.77;;;21.60;99.90;;;;;;5051587;28;20037;-90
2023/07/29 09:27:27;;;;;;;1.55;0.80;;;21.70;99.90;;;;;;5050852;28;20060;-89
2023/07/29 09:29:53;;;;;;;1.83;0.57;;;22.20;99.90;;;;;;5050230;28;20492;-89
2023/07/29 09:32:21;;;;;;;4.18;0.77;;;22.50;99.90;;;;;;5056395;28;20068;-89
2023/07/29 09:34:47;;;;;;;2.70;0.77;;;22.60;99.90;;;;;;5032530;28;20052;-89
2023/07/29 09:37:17;;;;;;;2.33;0.57;;;22.60;99.90;;;;;;5038287;28;20036;-89
2023/07/29 09:39:48;;;;;;;0.95;0.60;;;22.60;99.90;;;;;;5053049;28;20522;-89
2023/07/29 09:42:21;;;;;;;3.88;0.60;;;22.50;99.90;;;;;;5050136;28;20547;-86
2023/07/29 09:44:50;;;;;;;0.43;0.40;;;22.40;99.90;;;;;;5069807;28;20484;-86
2023/07/29 09:47:24;;;;;;;0.90;0.50;;;22.30;99.90;;;;;;5052587;28;20045;-85
2023/07/29 09:49:51;;;;;;;2.88;0.68;;;22.10;99.90;;;;;;5051955;28;20044;-86
2023/07/29 09:52:21;;;;;;;1.77;0.98;;;21.90;99.90;;;;;;5070281;28;20036;-85
2023/07/29 09:54:47;;;;;;;1.25;0.55;;;21.70;99.90;;;;;;5070264;28;20036;-86
2023/07/29 09:57:18;;;;;;;0.75;0.60;;;21.50;99.90;;;;;;5051692;28;20055;-86
2023/07/29 09:59:57;;;;;;;1.10;0.65;;;21.40;99.90;;;;;;5052077;28;20040;-88
2023/07/29 10:02:25;;;;;;;3.03;0.40;;;21.30;99.90;;;;;;5071489;28;20043;-93
2023/07/29 10:04:52;;;;;;;1.75;0.73;;;21.30;99.90;;;;;;5069881;28;20407;-86
2023/07/29 10:07:18;;;;;;;0.55;0.32;;;21.20;99.90;;;;;;5070233;28;20048;-86
2023/07/29 10:09:45;;;;;;;0.47;0.30;;;21.00;99.90;;;;;;5069656;28;20047;-86
2023/07/29 10:12:11;;;;;;;0.88;0.35;;;20.80;99.90;;;;;;5069838;28;20029;-87
2023/07/29 10:14:38;;;;;;;2.92;0.40;;;20.70;99.90;;;;;;5069769;28;20044;-86
2023/07/29 10:17:05;;;;;;;0.70;0.40;;;20.60;99.90;;;;;;5069517;28;20036;-86
2023/07/29 10:19:31;;;;;;;1.23;0.40;;;20.80;99.90;;;;;;5069998;28;20043;-85
2023/07/29 10:22:02;;;;;;;1.73;0.85;;;21.10;99.90;;;;;;5070159;28;20127;-86
2023/07/29 10:24:30;;;;;;;1.10;0.32;;;21.40;99.90;;;;;;5051711;28;20049;-86
2023/07/29 10:26:59;;;;;;;3.25;0.45;;;21.60;99.90;;;;;;5069976;28;20056;-87
2023/07/29 10:29:31;;;;;;;0.40;0.20;;;21.50;99.90;;;;;;5052166;28;20052;-86
2023/07/29 10:32:00;;;;;;;0.40;0.30;;;21.30;99.90;;;;;;5051462;28;20114;-87
2023/07/29 10:34:27;;;;;;;1.60;0.57;;;21.30;99.90;;;;;;5052125;28;20105;-86
2023/07/29 10:36:54;;;;;;;0.90;0.40;;;21.40;99.90;;;;;;5052165;28;20041;-86
2023/07/29 10:39:20;;;;;;;1.38;0.47;;;21.40;99.90;;;;;;5069492;28;20044;-86
2023/07/29 10:42:01;;;;;;;2.03;0.52;;;21.30;99.90;;;;;;5069890;28;20033;-86
2023/07/29 10:44:39;;;;;;;1.63;0.40;;;21.20;99.90;;;;;;5070120;28;20045;-86
2023/07/29 10:47:22;;;;;;;3.38;0.52;;;21.30;99.90;;;;;;5070648;28;20063;-86
2023/07/29 10:49:52;;;;;;;2.40;0.57;;;21.40;99.90;;;;;;5074192;28;20040;-86
2023/07/29 10:52:36;;;;;;;1.60;0.75;;;21.50;99.90;;;;;;5055229;28;20045;-86
2023/07/29 10:55:03;;;;;;;3.10;0.63;;;21.70;99.90;;;;;;5055943;28;20048;-86
2023/07/29 10:57:37;;;;;;;0.85;0.40;;;21.90;99.90;;;;;;5073812;28;20047;-86
2023/07/29 11:00:05;;;;;;;2.58;1.17;;;22.00;99.90;;;;;;5072972;28;20484;-86
2023/07/29 11:02:34;;;;;;;1.13;0.60;;;22.10;99.90;;;;;;5073689;28;20085;-87
2023/07/29 11:05:15;;;;;;;1.55;0.70;;;22.20;99.90;;;;;;5073954;28;20040;-87
2023/07/29 11:07:48;;;;;;;2.25;0.98;;;22.20;99.90;;;;;;5072918;28;20032;-88
2023/07/29 11:10:15;;;;;;;1.00;0.73;;;22.20;99.90;;;;;;5073872;28;20131;-86
2023/07/29 11:12:54;;;;;;;1.45;0.63;;;22.10;99.90;;;;;;5072912;28;20045;-87
2023/07/29 11:15:23;;;;;;;3.10;0.70;;;21.90;99.90;;;;;;5055570;28;20045;-86
2023/07/29 11:17:58;;;;;;;1.98;1.23;;;21.70;99.90;;;;;;5055764;28;20041;-88
2023/07/29 11:20:27;;;;;;;1.85;0.68;;;21.60;99.90;;;;;;5072446;28;20450;-87
2023/07/29 11:22:57;;;;;;;1.50;0.85;;;21.50;99.90;;;;;;5052826;28;20097;-88
2023/07/29 11:25:24;;;;;;;0.73;0.43;;;21.30;99.90;;;;;;5066374;28;20061;-86
2023/07/29 11:27:55;;;;;;;1.08;0.60;;;21.30;99.90;;;;;;5052607;28;20412;-87
2023/07/29 11:30:22;;;;;;;1.10;0.50;;;21.30;99.90;;;;;;5052892;28;20037;-86
2023/07/29 11:32:49;;;;;;;1.00;0.47;;;21.30;99.90;;;;;;5052926;28;20048;-86
2023/07/29 11:35:16;;;;;;;2.15;1.30;;;21.50;99.90;;;;;;5052479;28;20064;-87
2023/07/29 11:37:47;;;;;;;1.88;0.75;;;21.90;99.90;;;;;;5044938;28;20038;-88
2023/07/29 11:40:18;;;;;;;4.10;0.90;;;22.40;99.90;;;;;;5015485;28;20055;-87
2023/07/29 11:42:45;;;;;;;1.65;0.57;;;22.70;99.90;;;;;;5046404;28;20048;-85
2023/07/29 11:45:12;;;;;;;2.05;0.80;;;22.80;99.90;;;;;;5017651;28;20114;-85
2023/07/29 11:47:38;;;;;;;3.53;0.77;;;22.90;99.90;;;;;;5034259;28;20049;-86
2023/07/29 11:50:09;;;;;;;3.72;0.50;;;22.90;99.90;;;;;;5025366;28;20048;-85
2023/07/29 11:52:36;;;;;;;2.78;0.85;;;23.00;99.90;;;;;;5033309;28;20120;-86
2023/07/29 11:55:03;;;;;;;3.13;0.98;;;23.10;99.90;;;;;;5031070;28;20049;-86
2023/07/29 11:57:40;;;;;;;2.63;0.60;;;23.10;99.90;;;;;;5032729;28;20041;-85
2023/07/29 12:00:11;;;;;;;1.90;0.50;;;22.90;99.90;;;;;;5031361;28;20579;-86
2023/07/29 12:02:40;;;;;;;1.20;0.60;;;22.60;99.90;;;;;;5032207;28;20037;-86
2023/07/29 12:05:08;;;;;;;1.38;0.60;;;22.50;99.90;;;;;;5031122;28;20041;-86
2023/07/29 12:07:34;;;;;;;3.30;0.93;;;22.30;99.90;;;;;;5034647;28;20076;-86
2023/07/29 12:10:03;;;;;;;1.70;0.88;;;22.20;99.90;;;;;;5051791;28;20127;-86
2023/07/29 12:12:29;;;;;;;1.77;0.95;;;22.20;99.90;;;;;;5052288;28;20538;-85
2023/07/29 12:14:55;;;;;;;3.58;0.85;;;22.20;99.90;;;;;;5051478;28;20041;-85
2023/07/29 12:17:21;;;;;;;2.95;1.10;;;22.20;99.90;;;;;;5051781;28;20040;-84
2023/07/29 12:19:47;;;;;;;1.30;0.70;;;22.00;99.90;;;;;;5052279;28;20037;-84
2023/07/29 12:22:18;;;;;;;3.35;0.82;;;21.90;99.90;;;;;;5034159;28;20079;-86
2023/07/29 12:24:44;;;;;;;1.10;0.50;;;21.90;99.90;;;;;;5051057;28;20045;-85
2023/07/29 12:27:12;;;;;;;2.58;0.70;;;22.00;99.90;;;;;;5051177;28;20392;-85
2023/07/29 12:29:43;;;;;;;3.13;0.52;;;22.10;99.90;;;;;;5053597;28;20041;-85
2023/07/29 12:32:10;;;;;;;1.23;0.50;;;22.20;99.90;;;;;;5054214;28;20316;-85
2023/07/29 12:34:37;;;;;;;2.22;0.70;;;22.20;99.90;;;;;;5066368;28;20083;-84
2023/07/29 12:37:04;;;;;;;1.92;0.47;;;22.30;99.90;;;;;;5033405;28;20081;-85
2023/07/29 12:39:32;;;;;;;1.73;0.70;;;22.30;99.90;;;;;;5034006;28;20403;-84
2023/07/29 12:41:59;;;;;;;0.85;0.47;;;22.40;99.90;;;;;;5052026;28;20142;-85
2023/07/29 12:44:30;;;;;;;1.00;0.40;;;22.60;99.90;;;;;;5033232;28;20098;-84
2023/07/29 12:46:56;;;;;;;2.97;0.93;;;23.00;99.90;;;;;;5033572;28;20045;-85
2023/07/29 12:49:22;;;;;;;1.00;0.30;;;23.10;99.90;;;;;;5051523;28;20562;-86